Time;durP1;ratioP1;P1;durP2;ratioP2;P2;SDS_P1;SDS_P2;PMS_P1;PMS_P2;Temp;Humidity;BMP_temperature;BMP_pressure;BME280_temperature;BME280_humidity;BME280_pressure;Samples;Min_cycle;Max_cycle;Signal;HPM_P1;HPM_P2
2022/12/15 00:39:17;;;;;;;23.53;21.07;;;2.70;99.90;;;;;;5024869;28;20033;-83
2022/12/15 00:41:44;;;;;;;45.80;31.43;;;2.70;99.90;;;;;;5007790;28;20042;-83
2022/12/15 00:44:10;;;;;;;49.10;30.60;;;2.70;99.90;;;;;;5023781;28;20399;-83
2022/12/15 00:46:54;;;;;;;42.97;28.73;;;2.70;99.90;;;;;;5023394;28;20502;-83
2022/12/15 01:22:21;;;;;;;23.83;21.13;;;2.70;99.90;;;;;;5009123;28;20030;-83
2022/12/15 01:24:47;;;;;;;39.90;28.07;;;2.80;99.90;;;;;;5010846;28;20406;-83
2022/12/15 01:27:13;;;;;;;42.83;29.07;;;2.80;99.90;;;;;;5009920;28;20047;-83
2022/12/15 01:29:40;;;;;;;39.50;27.20;;;2.70;99.90;;;;;;5010250;28;20057;-83
2022/12/15 01:32:06;;;;;;;42.00;28.03;;;2.70;99.90;;;;;;5010310;28;20038;-83
2022/12/15 01:34:32;;;;;;;45.70;27.57;;;2.70;99.90;;;;;;5010386;28;20033;-83
2022/12/15 01:36:58;;;;;;;18.10;15.87;;;2.70;99.90;;;;;;5010326;28;20388;-83
2022/12/15 01:39:24;;;;;;;42.00;28.80;;;2.60;99.90;;;;;;5010509;28;20038;-83
2022/12/15 01:41:50;;;;;;;31.67;24.57;;;2.60;99.90;;;;;;5010169;28;20045;-84
2022/12/15 01:44:21;;;;;;;49.43;31.53;;;2.70;99.90;;;;;;5010113;28;20033;-83
2022/12/15 01:46:48;;;;;;;15.32;13.88;;;2.70;99.90;;;;;;5010239;28;20037;-83
2022/12/15 01:49:20;;;;;;;19.17;17.03;;;2.60;99.90;;;;;;5009954;28;20061;-83
2022/12/15 01:51:49;;;;;;;28.47;18.80;;;2.60;99.90;;;;;;4994896;28;20027;-83
2022/12/15 01:54:23;;;;;;;40.87;27.63;;;2.60;99.90;;;;;;5026577;28;20357;-83
2022/12/15 01:56:51;;;;;;;43.10;29.13;;;2.60;99.90;;;;;;5041155;28;20030;-83
2022/12/15 01:59:23;;;;;;;47.13;29.87;;;2.60;99.90;;;;;;4997228;28;20498;-84
2022/12/15 02:01:49;;;;;;;29.13;21.23;;;2.60;99.90;;;;;;4980095;28;20049;-83
2022/12/15 02:04:19;;;;;;;34.50;24.90;;;2.60;99.90;;;;;;4996832;28;20030;-83
2022/12/15 02:06:45;;;;;;;38.33;26.37;;;2.50;99.90;;;;;;4981174;28;20038;-83
2022/12/15 02:09:12;;;;;;;43.90;33.43;;;2.60;99.90;;;;;;4980584;28;20056;-83
2022/12/15 02:12:01;;;;;;;28.53;20.80;;;2.60;99.90;;;;;;4980393;28;20049;-83
2022/12/15 02:14:53;;;;;;;19.03;17.07;;;2.50;99.90;;;;;;4999191;28;20030;-83
2022/12/15 02:17:56;;;;;;;19.60;17.60;;;2.50;99.90;;;;;;5013506;28;20033;-83
2022/12/15 02:20:43;;;;;;;26.77;20.80;;;2.50;99.90;;;;;;4987093;28;20029;-82
2022/12/15 02:23:46;;;;;;;34.97;23.10;;;2.40;99.90;;;;;;4995254;28;20037;-82
2022/12/15 02:26:44;;;;;;;32.53;23.33;;;2.50;99.90;;;;;;5011299;28;20061;-82
2022/12/15 02:29:38;;;;;;;27.00;21.23;;;2.40;99.90;;;;;;4994381;28;20599;-83
2022/12/15 02:32:10;;;;;;;38.47;24.47;;;2.40;99.90;;;;;;4979194;28;20038;-82
2022/12/15 02:34:43;;;;;;;;;;;2.50;99.90;;;;;;4995099;28;20045;-83
2022/12/15 02:37:14;;;;;;;35.43;22.43;;;2.50;99.90;;;;;;5028011;28;19912;-83
2022/12/15 02:39:40;;;;;;;16.15;14.57;;;2.40;99.90;;;;;;5010861;28;20050;-83
2022/12/15 02:42:07;;;;;;;33.13;23.87;;;2.40;99.90;;;;;;5011406;28;20049;-83
2022/12/15 02:44:57;;;;;;;32.97;24.63;;;2.40;99.90;;;;;;4994131;28;20053;-83
2022/12/15 02:47:35;;;;;;;31.27;23.37;;;2.40;99.90;;;;;;4995370;28;20391;-83
2022/12/15 02:50:46;;;;;;;25.03;19.40;;;2.40;99.90;;;;;;4993815;28;20159;-83
2022/12/15 02:53:33;;;;;;;23.20;18.33;;;2.40;99.90;;;;;;4952758;29;20043;-83
2022/12/15 02:56:06;;;;;;;27.00;20.50;;;2.40;99.90;;;;;;4933477;29;20271;-83
2022/12/15 02:58:56;;;;;;;23.37;19.00;;;2.40;99.90;;;;;;4917660;29;20389;-83
2022/12/15 03:01:39;;;;;;;32.73;21.80;;;2.40;99.90;;;;;;4932433;29;20055;-83
2022/12/15 03:04:06;;;;;;;37.10;26.00;;;2.40;99.90;;;;;;4911409;29;20059;-83
2022/12/15 03:06:32;;;;;;;21.33;17.80;;;2.40;99.90;;;;;;4907133;29;20031;-84
2022/12/15 03:08:59;;;;;;;36.87;23.93;;;2.40;99.90;;;;;;4911610;29;20039;-83
2022/12/15 03:11:25;;;;;;;41.10;27.83;;;2.40;99.90;;;;;;4900333;29;20051;-83
2022/12/15 03:13:51;;;;;;;36.23;25.77;;;2.40;99.90;;;;;;4915574;29;20028;-84
2022/12/15 03:16:17;;;;;;;34.23;27.00;;;2.40;99.90;;;;;;4900158;29;20035;-83
2022/12/15 03:18:43;;;;;;;38.90;27.23;;;2.50;99.90;;;;;;4916149;29;20040;-83
2022/12/15 03:21:09;;;;;;;36.67;26.93;;;2.50;99.90;;;;;;4931823;29;20032;-84
2022/12/15 03:23:36;;;;;;;25.03;17.57;;;2.50;99.90;;;;;;4899987;29;20039;-83
2022/12/15 03:26:02;;;;;;;38.80;28.10;;;2.50;99.90;;;;;;4915912;29;20036;-84
2022/12/15 03:28:28;;;;;;;22.40;17.73;;;2.50;99.90;;;;;;4900016;29;20405;-83
2022/12/15 03:30:55;;;;;;;30.23;22.17;;;2.50;99.90;;;;;;4987462;28;20038;-84
2022/12/15 03:33:21;;;;;;;37.20;25.93;;;2.40;99.90;;;;;;4958961;28;20034;-83
2022/12/15 03:35:48;;;;;;;25.20;18.93;;;2.40;99.90;;;;;;4990382;28;20031;-83
2022/12/15 03:38:14;;;;;;;19.87;16.37;;;2.40;99.90;;;;;;4959945;28;20038;-83
2022/12/15 03:40:40;;;;;;;32.40;24.53;;;2.40;99.90;;;;;;5008237;28;20368;-83
2022/12/15 03:43:06;;;;;;;22.23;18.10;;;2.40;99.90;;;;;;4991662;28;20039;-83
2022/12/15 03:45:33;;;;;;;40.97;28.93;;;2.40;99.90;;;;;;4991271;28;20034;-82
2022/12/15 03:47:59;;;;;;;31.70;22.23;;;2.40;99.90;;;;;;4991699;28;20034;-83
2022/12/15 03:50:26;;;;;;;27.40;21.63;;;2.30;99.90;;;;;;5007940;28;20058;-83
2022/12/15 03:52:57;;;;;;;41.80;28.47;;;2.30;99.90;;;;;;4991578;28;20039;-83
2022/12/15 03:55:23;;;;;;;20.85;16.95;;;2.30;99.90;;;;;;4994090;28;20034;-83
2022/12/15 03:57:49;;;;;;;25.13;18.80;;;2.40;99.90;;;;;;4979183;28;20582;-83
2022/12/15 04:00:17;;;;;;;32.83;24.57;;;2.30;99.90;;;;;;4994700;28;20045;-83
2022/12/15 04:02:44;;;;;;;43.13;28.37;;;2.30;99.90;;;;;;4995033;28;20022;-83
2022/12/15 04:05:19;;;;;;;16.73;14.60;;;2.30;99.90;;;;;;4995147;28;20026;-82
2022/12/15 04:07:45;;;;;;;36.80;27.33;;;2.30;99.90;;;;;;5011226;28;20034;-82
2022/12/15 04:10:11;;;;;;;40.80;24.17;;;2.30;99.90;;;;;;4995000;28;20026;-82
2022/12/15 04:12:40;;;;;;;37.87;26.87;;;2.40;99.90;;;;;;4994946;28;20061;-82
2022/12/15 04:15:07;;;;;;;28.60;20.87;;;2.40;99.90;;;;;;4979303;28;20041;-82
2022/12/15 04:17:33;;;;;;;31.93;21.10;;;2.40;99.90;;;;;;4978946;28;20034;-83
2022/12/15 04:20:09;;;;;;;41.93;29.03;;;2.50;99.90;;;;;;4986924;28;20452;-82
2022/12/15 04:22:39;;;;;;;23.90;20.37;;;2.40;99.90;;;;;;5021748;28;20030;-82
2022/12/15 05:33:53;;;;;;;26.17;20.20;;;2.60;99.90;;;;;;5007965;28;20041;-82
2022/12/15 05:36:20;;;;;;;32.53;23.37;;;2.60;99.90;;;;;;5010115;28;20038;-81
2022/12/15 05:38:52;;;;;;;40.07;26.03;;;2.60;99.90;;;;;;5009927;28;20049;-82
2022/12/15 05:41:18;;;;;;;28.63;19.77;;;2.50;99.90;;;;;;5027013;28;20494;-82
2022/12/15 05:43:45;;;;;;;30.83;23.57;;;2.50;99.90;;;;;;5010297;28;20034;-83
2022/12/15 05:46:11;;;;;;;35.27;24.50;;;2.50;99.90;;;;;;4993638;28;20039;-82
2022/12/15 05:48:37;;;;;;;31.70;22.13;;;2.50;99.90;;;;;;5010011;28;20042;-82
2022/12/15 05:51:05;;;;;;;36.20;25.93;;;2.50;99.90;;;;;;5026591;28;20042;-82
2022/12/15 05:53:31;;;;;;;36.10;26.60;;;2.50;99.90;;;;;;5010237;28;20051;-82
2022/12/15 05:56:01;;;;;;;47.77;21.47;;;2.50;99.90;;;;;;5017850;28;20038;-83
2022/12/15 05:58:28;;;;;;;25.80;20.80;;;2.50;99.90;;;;;;4997177;28;20042;-82
2022/12/15 06:00:54;;;;;;;34.63;22.17;;;2.40;99.90;;;;;;4980549;28;20049;-83
2022/12/15 06:03:20;;;;;;;37.93;28.10;;;2.50;99.90;;;;;;5012987;28;20034;-82
2022/12/15 06:05:46;;;;;;;39.00;26.63;;;2.40;99.90;;;;;;4996823;28;20055;-82
2022/12/15 06:08:12;;;;;;;35.77;22.90;;;2.40;99.90;;;;;;4996866;28;20033;-82
2022/12/15 06:10:38;;;;;;;21.50;17.00;;;2.40;99.90;;;;;;4980648;28;20053;-82
2022/12/15 06:13:04;;;;;;;46.77;24.03;;;2.40;99.90;;;;;;4980728;28;20526;-82
2022/12/15 06:15:30;;;;;;;32.77;23.50;;;2.30;99.90;;;;;;4996257;28;20026;-82
2022/12/15 06:17:56;;;;;;;34.10;22.90;;;2.30;99.90;;;;;;4980303;28;20399;-82
2022/12/15 06:20:23;;;;;;;33.73;24.53;;;2.30;99.90;;;;;;4985332;28;20037;-82
2022/12/15 06:22:49;;;;;;;28.53;16.43;;;2.40;99.90;;;;;;4994675;28;20086;-82
2022/12/15 06:25:16;;;;;;;40.27;25.20;;;2.30;99.90;;;;;;5025804;28;20038;-82
2022/12/15 06:27:42;;;;;;;16.67;14.30;;;2.30;99.90;;;;;;4993628;28;20057;-82
2022/12/15 06:30:09;;;;;;;33.13;22.77;;;2.20;99.90;;;;;;5009149;28;20046;-83
2022/12/15 06:32:35;;;;;;;35.53;24.37;;;2.20;99.90;;;;;;5008974;28;20054;-82
2022/12/15 06:35:01;;;;;;;20.90;17.67;;;2.10;99.90;;;;;;5009184;28;20030;-83
2022/12/15 06:37:27;;;;;;;38.20;25.50;;;2.10;99.90;;;;;;5025822;28;20042;-82
2022/12/15 06:39:53;;;;;;;37.10;25.40;;;2.10;99.90;;;;;;4992998;28;20035;-82
2022/12/15 06:42:20;;;;;;;22.43;17.70;;;2.10;99.90;;;;;;4993578;28;20042;-82
2022/12/15 06:44:46;;;;;;;27.13;21.23;;;2.10;99.90;;;;;;4993273;28;20043;-82
2022/12/15 06:47:12;;;;;;;105.63;25.63;;;2.00;99.90;;;;;;5008733;28;20039;-82
2022/12/15 06:49:38;;;;;;;27.03;20.60;;;2.00;99.90;;;;;;5009284;28;20487;-83
2022/12/15 06:52:05;;;;;;;28.07;19.37;;;2.00;99.90;;;;;;4992792;28;20051;-82
2022/12/15 06:54:31;;;;;;;25.87;20.63;;;2.00;99.90;;;;;;5025368;28;20042;-82
2022/12/15 06:56:57;;;;;;;33.00;22.87;;;1.90;99.90;;;;;;5041165;28;20030;-82
2022/12/15 06:59:23;;;;;;;35.33;22.33;;;1.90;99.90;;;;;;5012096;28;20037;-82
2022/12/15 07:01:49;;;;;;;37.77;27.00;;;1.90;99.90;;;;;;4995084;28;20034;-82
2022/12/15 07:04:15;;;;;;;23.80;19.03;;;1.90;99.90;;;;;;5012055;28;20026;-82
2022/12/15 07:06:41;;;;;;;23.93;17.93;;;1.90;99.90;;;;;;5012101;28;20033;-82
2022/12/15 07:09:11;;;;;;;22.07;19.10;;;1.90;99.90;;;;;;5011948;28;20467;-82
2022/12/15 07:11:37;;;;;;;26.00;18.90;;;1.90;99.90;;;;;;4995828;28;20033;-82
2022/12/15 07:14:04;;;;;;;25.33;18.87;;;1.90;99.90;;;;;;4995611;28;20026;-82
2022/12/15 07:16:30;;;;;;;27.57;21.27;;;1.90;99.90;;;;;;4994791;28;20034;-82
2022/12/15 07:18:56;;;;;;;41.00;29.07;;;1.90;99.90;;;;;;4995523;28;20030;-82
2022/12/15 07:21:22;;;;;;;31.13;23.87;;;1.90;99.90;;;;;;4992510;28;20033;-82
2022/12/15 07:23:48;;;;;;;31.10;23.43;;;1.90;99.90;;;;;;4992771;28;20407;-83
2022/12/15 07:26:14;;;;;;;23.67;19.33;;;1.90;99.90;;;;;;5008463;28;20042;-83
2022/12/15 07:28:41;;;;;;;40.37;26.87;;;1.90;99.90;;;;;;4992013;28;20404;-83
2022/12/15 07:31:08;;;;;;;46.30;29.20;;;1.90;99.90;;;;;;5023921;28;20046;-83
2022/12/15 07:33:35;;;;;;;44.60;27.33;;;2.00;99.90;;;;;;5008652;28;20041;-83
2022/12/15 07:36:01;;;;;;;37.83;25.40;;;2.00;99.90;;;;;;5008313;28;20034;-83
2022/12/15 07:38:27;;;;;;;26.67;20.70;;;2.00;99.90;;;;;;5008315;28;20034;-82
2022/12/15 07:40:53;;;;;;;40.97;30.20;;;1.90;99.90;;;;;;5024958;28;20387;-85
2022/12/15 07:43:20;;;;;;;47.40;29.80;;;1.90;99.90;;;;;;5024679;28;20026;-86
2022/12/15 07:45:53;;;;;;;32.57;25.57;;;2.00;99.90;;;;;;5007287;28;20034;-86
2022/12/15 07:48:19;;;;;;;35.13;25.30;;;2.00;99.90;;;;;;5008218;28;20411;-86
2022/12/15 07:50:45;;;;;;;40.87;28.03;;;2.10;99.90;;;;;;5008148;28;20080;-85
2022/12/15 07:53:11;;;;;;;40.23;28.17;;;2.10;99.90;;;;;;5008190;28;20035;-86
2022/12/15 07:55:37;;;;;;;36.97;27.07;;;2.10;99.90;;;;;;4996607;28;20041;-86
2022/12/15 07:58:03;;;;;;;44.73;27.87;;;2.00;99.90;;;;;;5011294;28;20414;-85
2022/12/15 08:00:29;;;;;;;40.27;28.83;;;2.00;99.90;;;;;;5013344;28;20026;-86
2022/12/15 08:02:56;;;;;;;39.10;27.60;;;2.00;99.90;;;;;;5015507;28;20037;-86
2022/12/15 08:05:22;;;;;;;36.10;25.70;;;2.00;99.90;;;;;;4999124;28;20034;-86
2022/12/15 08:07:48;;;;;;;40.30;28.83;;;2.00;99.90;;;;;;4983045;28;20060;-87
2022/12/15 08:10:14;;;;;;;40.53;26.60;;;2.00;99.90;;;;;;5016560;28;20026;-86
2022/12/15 08:12:40;;;;;;;36.13;24.37;;;2.00;99.90;;;;;;4982954;28;20517;-86
2022/12/15 08:15:07;;;;;;;39.83;28.37;;;2.00;99.90;;;;;;5015680;28;20018;-86
2022/12/15 08:17:33;;;;;;;42.37;27.20;;;2.00;99.90;;;;;;5015234;28;20450;-85
2022/12/15 08:20:00;;;;;;;43.13;28.17;;;2.10;99.90;;;;;;4990584;28;20026;-86
2022/12/15 08:22:26;;;;;;;43.23;26.40;;;2.20;99.90;;;;;;4996692;28;20467;-86
2022/12/15 08:24:52;;;;;;;24.40;19.60;;;2.20;99.90;;;;;;4995383;28;20045;-86
2022/12/15 08:27:19;;;;;;;33.67;22.33;;;2.10;99.90;;;;;;4996152;28;20054;-86
2022/12/15 08:29:45;;;;;;;27.73;16.47;;;2.10;99.90;;;;;;5011369;28;20038;-86
2022/12/15 08:32:13;;;;;;;35.47;27.10;;;2.00;99.90;;;;;;5011027;28;20053;-86
2022/12/15 08:34:41;;;;;;;26.57;19.47;;;2.00;99.90;;;;;;4996413;28;20034;-86
2022/12/15 08:37:07;;;;;;;22.27;19.37;;;2.00;99.90;;;;;;5027489;28;20038;-86
2022/12/15 08:39:33;;;;;;;26.23;21.57;;;1.90;99.90;;;;;;4996317;28;20389;-86
2022/12/15 08:41:59;;;;;;;42.10;27.37;;;1.90;99.90;;;;;;5011001;28;20030;-85
2022/12/15 08:44:25;;;;;;;18.13;16.37;;;2.00;99.90;;;;;;4996188;28;20034;-86
2022/12/15 08:46:51;;;;;;;27.47;20.40;;;2.00;99.90;;;;;;4994630;28;20042;-86
2022/12/15 08:49:17;;;;;;;33.07;23.97;;;2.00;99.90;;;;;;4994699;28;20034;-86
2022/12/15 08:51:43;;;;;;;34.47;24.80;;;2.00;99.90;;;;;;5011124;28;20045;-86
2022/12/15 08:54:09;;;;;;;27.27;20.97;;;2.00;99.90;;;;;;4994831;28;20038;-86
2022/12/15 08:56:35;;;;;;;36.43;26.37;;;2.10;99.90;;;;;;5040507;28;20045;-87
2022/12/15 08:59:02;;;;;;;25.87;19.27;;;2.10;99.90;;;;;;5015408;28;20030;-87
2022/12/15 09:01:29;;;;;;;39.00;26.50;;;2.10;99.90;;;;;;5015470;28;20418;-87
2022/12/15 09:03:56;;;;;;;40.53;26.13;;;2.10;99.90;;;;;;5015566;28;20041;-87
2022/12/15 09:06:27;;;;;;;33.87;23.80;;;2.10;99.90;;;;;;5014493;28;20033;-86
2022/12/15 09:08:55;;;;;;;27.17;20.83;;;2.00;99.90;;;;;;5014444;28;20030;-86
2022/12/15 09:11:22;;;;;;;40.47;24.93;;;2.00;99.90;;;;;;5012996;28;20499;-86
2022/12/15 09:13:48;;;;;;;27.43;21.40;;;2.10;99.90;;;;;;4997548;28;20033;-86
2022/12/15 09:16:15;;;;;;;33.03;23.23;;;2.00;99.90;;;;;;4997426;28;20398;-86
2022/12/15 09:18:46;;;;;;;28.73;22.07;;;2.10;99.90;;;;;;4997939;28;20026;-86
2022/12/15 09:21:13;;;;;;;39.83;27.27;;;2.10;99.90;;;;;;4995928;28;20030;-86
2022/12/15 09:23:39;;;;;;;28.43;21.17;;;2.10;99.90;;;;;;4995480;28;20131;-86
2022/12/15 09:26:11;;;;;;;122.33;30.03;;;2.10;99.90;;;;;;4995110;28;20069;-86
2022/12/15 09:28:37;;;;;;;;;;;2.10;99.90;;;;;;5027481;28;20037;-87
2022/12/15 09:31:07;;;;;;;18.23;16.30;;;2.10;99.90;;;;;;5026519;28;19913;-87
2022/12/15 09:33:33;;;;;;;39.00;26.97;;;2.20;99.90;;;;;;5010528;28;20050;-86
2022/12/15 09:35:59;;;;;;;40.17;26.43;;;2.20;99.90;;;;;;5026978;28;20350;-86
2022/12/15 09:38:25;;;;;;;40.83;27.53;;;2.20;99.90;;;;;;4995135;28;20090;-86
2022/12/15 09:40:51;;;;;;;21.47;19.13;;;2.20;99.90;;;;;;4994790;28;20034;-86
2022/12/15 09:43:25;;;;;;;27.93;20.83;;;2.20;99.90;;;;;;5010670;28;20034;-86
2022/12/15 09:46:07;;;;;;;28.63;22.03;;;2.20;99.90;;;;;;5009613;28;20035;-86
2022/12/15 09:48:38;;;;;;;38.27;25.80;;;2.20;99.90;;;;;;5026700;28;20053;-86
2022/12/15 09:51:05;;;;;;;22.40;19.37;;;2.30;99.90;;;;;;5026174;28;20043;-86
2022/12/15 09:53:31;;;;;;;19.00;15.73;;;2.30;99.90;;;;;;5026753;28;20503;-86
2022/12/15 09:56:02;;;;;;;38.47;27.50;;;2.30;99.90;;;;;;5033779;28;20026;-86
2022/12/15 09:58:34;;;;;;;23.00;19.07;;;2.40;99.90;;;;;;4997179;28;20022;-87
2022/12/15 10:01:30;;;;;;;37.73;26.07;;;2.50;99.90;;;;;;5013939;28;20506;-86
2022/12/15 10:04:29;;;;;;;37.83;27.67;;;2.50;99.90;;;;;;5014819;28;20030;-87
2022/12/15 10:07:21;;;;;;;25.77;20.97;;;2.50;99.90;;;;;;5012873;28;20364;-86
2022/12/15 10:09:47;;;;;;;25.03;20.03;;;2.50;99.90;;;;;;4998096;28;20479;-86
2022/12/15 10:12:24;;;;;;;24.50;21.07;;;2.50;99.90;;;;;;5012979;28;20041;-86
2022/12/15 10:14:52;;;;;;;35.27;25.10;;;2.50;99.90;;;;;;4998178;28;20371;-86
2022/12/15 10:17:29;;;;;;;20.20;18.07;;;2.50;99.90;;;;;;4996442;28;20037;-86
2022/12/15 10:20:05;;;;;;;24.53;18.40;;;2.50;99.90;;;;;;5005273;28;20029;-86
2022/12/15 10:22:34;;;;;;;22.13;17.67;;;2.50;99.90;;;;;;5009551;28;20057;-86
2022/12/15 10:25:06;;;;;;;21.50;19.40;;;2.60;99.90;;;;;;5008883;28;20022;-87
2022/12/15 10:28:01;;;;;;;23.27;18.60;;;2.70;99.90;;;;;;5025589;28;20051;-86
2022/12/15 10:30:27;;;;;;;36.63;24.60;;;2.70;99.90;;;;;;4993902;28;20027;-86
2022/12/15 10:33:04;;;;;;;23.40;18.57;;;2.80;99.90;;;;;;5009375;28;20410;-86
2022/12/15 10:35:32;;;;;;;30.70;23.20;;;2.80;99.90;;;;;;5025902;28;20023;-86
2022/12/15 10:38:00;;;;;;;33.93;20.33;;;2.90;99.90;;;;;;5008911;28;20026;-87
2022/12/15 10:40:45;;;;;;;18.23;16.57;;;2.90;99.90;;;;;;5025694;28;20022;-86
2022/12/15 10:43:35;;;;;;;37.23;27.73;;;3.00;99.90;;;;;;5025559;28;20475;-86
2022/12/15 10:46:20;;;;;;;36.03;26.10;;;3.20;99.90;;;;;;5008709;28;20030;-86
2022/12/15 10:48:57;;;;;;;37.77;29.97;;;3.30;99.90;;;;;;5024509;28;20061;-86
2022/12/15 10:51:31;;;;;;;31.97;24.63;;;3.40;99.90;;;;;;5025447;28;20026;-87
2022/12/15 10:54:11;;;;;;;26.13;21.37;;;3.60;99.90;;;;;;5008482;28;20046;-87
2022/12/15 10:56:57;;;;;;;22.60;20.40;;;3.60;99.90;;;;;;5006993;28;20055;-86
2022/12/15 10:59:31;;;;;;;33.00;27.00;;;3.50;99.90;;;;;;4980310;28;20391;-86
2022/12/15 11:02:17;;;;;;;23.20;20.80;;;3.60;99.90;;;;;;4995672;28;20034;-86
2022/12/15 11:05:02;;;;;;;33.50;24.57;;;3.50;99.90;;;;;;5012233;28;20475;-86
2022/12/15 11:07:40;;;;;;;33.03;23.53;;;3.60;99.90;;;;;;4996847;28;20030;-87
2022/12/15 11:10:19;;;;;;;28.43;23.57;;;3.60;99.90;;;;;;4996108;28;20026;-86
2022/12/15 11:13:09;;;;;;;28.90;25.10;;;3.60;99.90;;;;;;5012013;28;20044;-87
2022/12/15 11:15:50;;;;;;;33.43;26.47;;;3.60;99.90;;;;;;4996542;28;20037;-86
2022/12/15 11:18:34;;;;;;;22.35;19.98;;;3.60;99.90;;;;;;4997031;28;20080;-86
2022/12/15 11:21:20;;;;;;;29.73;24.10;;;3.50;99.90;;;;;;4995633;28;20037;-86
2022/12/15 11:23:50;;;;;;;35.93;32.33;;;3.50;99.90;;;;;;5024611;28;20041;-85
2022/12/15 11:26:39;;;;;;;37.30;27.30;;;3.50;99.90;;;;;;5009137;28;20480;-86
2022/12/15 11:29:20;;;;;;;23.27;20.43;;;3.50;99.90;;;;;;5027086;28;20038;-87
2022/12/15 11:31:46;;;;;;;21.83;19.77;;;3.50;99.90;;;;;;4997297;28;20399;-87
2022/12/15 11:34:20;;;;;;;23.60;21.30;;;3.50;99.90;;;;;;5025964;28;20026;-86
2022/12/15 11:36:57;;;;;;;20.03;18.27;;;3.40;99.90;;;;;;5009843;28;20035;-87
2022/12/15 11:39:32;;;;;;;23.90;19.83;;;3.40;99.90;;;;;;5030030;28;20018;-86
2022/12/15 11:42:12;;;;;;;27.40;23.40;;;3.40;99.90;;;;;;5029604;28;20038;-86
2022/12/15 11:44:57;;;;;;;22.67;20.77;;;3.40;99.90;;;;;;5013047;28;20034;-86
2022/12/15 11:47:43;;;;;;;26.03;21.00;;;3.40;99.90;;;;;;5012957;28;20031;-86
2022/12/15 11:50:27;;;;;;;24.73;19.50;;;3.40;99.90;;;;;;4993682;28;20487;-86
2022/12/15 11:53:08;;;;;;;21.20;19.13;;;3.50;99.90;;;;;;5008789;28;20038;-85
2022/12/15 11:55:39;;;;;;;;;;;3.50;99.90;;;;;;5032384;28;20022;-86
2022/12/15 11:58:51;;;;;;;23.40;20.53;;;3.60;99.90;;;;;;5044658;28;19906;-87
2022/12/15 12:01:17;;;;;;;19.43;17.77;;;3.60;99.90;;;;;;5010997;28;20030;-87
2022/12/15 12:03:47;;;;;;;21.70;18.67;;;3.70;99.90;;;;;;5012703;28;20029;-87
2022/12/15 12:06:25;;;;;;;17.60;15.93;;;3.60;99.90;;;;;;5012648;28;20018;-87
2022/12/15 12:09:07;;;;;;;31.27;19.83;;;3.60;99.90;;;;;;4996677;28;20467;-86
2022/12/15 12:11:51;;;;;;;24.63;20.37;;;3.60;99.90;;;;;;5011675;28;20041;-86
2022/12/15 12:14:20;;;;;;;36.37;22.87;;;3.70;99.90;;;;;;5012495;28;20038;-86
2022/12/15 12:17:01;;;;;;;24.17;21.57;;;3.70;99.90;;;;;;5011771;28;20363;-86
2022/12/15 12:20:08;;;;;;;18.70;16.35;;;3.70;99.90;;;;;;5009111;28;20387;-87
2022/12/15 12:22:38;;;;;;;20.83;18.63;;;3.70;99.90;;;;;;4951790;29;20505;-86
2022/12/15 12:25:15;;;;;;;19.52;17.50;;;3.70;99.90;;;;;;4951951;29;20398;-86
2022/12/15 12:27:54;;;;;;;25.67;22.27;;;3.70;99.90;;;;;;4967774;28;20536;-86
2022/12/15 12:30:22;;;;;;;21.07;18.87;;;3.70;99.90;;;;;;4951567;28;20329;-87
2022/12/15 12:33:09;;;;;;;17.80;16.20;;;3.80;99.90;;;;;;4967929;28;20035;-87
2022/12/15 12:35:57;;;;;;;23.17;20.23;;;3.80;99.90;;;;;;4967481;28;20031;-86
2022/12/15 12:38:25;;;;;;;22.67;18.23;;;3.80;99.90;;;;;;4967609;28;20050;-86
2022/12/15 12:41:03;;;;;;;18.50;16.77;;;3.80;99.90;;;;;;4951881;29;20039;-87
2022/12/15 12:43:34;;;;;;;19.60;17.37;;;3.90;99.90;;;;;;4951934;29;20042;-87
2022/12/15 12:46:02;;;;;;;27.67;21.88;;;3.90;99.90;;;;;;4967702;28;20028;-86
2022/12/15 12:48:36;;;;;;;26.37;21.87;;;3.90;99.90;;;;;;4955056;29;20381;-86
2022/12/15 12:51:15;;;;;;;23.13;20.67;;;3.90;99.90;;;;;;4971415;28;20043;-86
2022/12/15 12:53:41;;;;;;;22.77;17.17;;;4.00;99.90;;;;;;4971159;28;20044;-86
2022/12/15 12:56:41;;;;;;;23.10;20.70;;;4.00;99.90;;;;;;4964184;28;20038;-87
2022/12/15 12:59:29;;;;;;;25.07;18.97;;;4.00;99.90;;;;;;4971533;28;20041;-86
2022/12/15 13:01:56;;;;;;;25.00;20.43;;;4.00;99.90;;;;;;5015181;28;20033;-86
2022/12/15 13:04:28;;;;;;;20.53;17.93;;;4.10;99.90;;;;;;4998035;28;20037;-86
2022/12/15 13:06:58;;;;;;;23.17;20.03;;;4.10;99.90;;;;;;5015610;28;20029;-85
2022/12/15 13:09:39;;;;;;;18.87;16.90;;;4.30;99.90;;;;;;4998246;28;20022;-86
2022/12/15 13:12:37;;;;;;;30.08;23.60;;;4.40;99.90;;;;;;4982383;28;20486;-86
2022/12/15 13:15:09;;;;;;;22.63;18.80;;;4.50;99.90;;;;;;5013727;28;20049;-86
2022/12/15 13:17:41;;;;;;;24.23;21.63;;;4.70;99.90;;;;;;4998184;28;20026;-87
2022/12/15 13:20:19;;;;;;;27.13;19.47;;;4.70;99.90;;;;;;4988827;28;20491;-86
2022/12/15 13:22:46;;;;;;;27.00;22.10;;;4.70;99.90;;;;;;5027127;28;20030;-87
2022/12/15 13:25:34;;;;;;;26.07;21.70;;;4.70;99.90;;;;;;5010572;28;20076;-87
2022/12/15 13:28:08;;;;;;;22.40;20.23;;;4.70;99.90;;;;;;4996251;28;20396;-86
2022/12/15 13:30:34;;;;;;;30.73;22.40;;;4.70;99.90;;;;;;5026678;28;20035;-87
2022/12/15 13:33:15;;;;;;;26.40;23.40;;;4.70;99.90;;;;;;5010109;28;20484;-86
2022/12/15 13:35:41;;;;;;;18.90;16.92;;;4.70;99.90;;;;;;5010500;28;20382;-87
2022/12/15 13:38:16;;;;;;;26.67;22.20;;;4.70;99.90;;;;;;4993957;28;20026;-86
2022/12/15 13:40:49;;;;;;;27.83;19.17;;;4.70;99.90;;;;;;4993883;28;20031;-87
2022/12/15 13:43:30;;;;;;;27.27;21.70;;;4.80;99.90;;;;;;5010869;28;20045;-87
2022/12/15 13:46:01;;;;;;;25.60;22.80;;;4.80;99.90;;;;;;4994846;28;20034;-87
2022/12/15 13:48:31;;;;;;;20.27;18.42;;;4.90;99.90;;;;;;5009798;28;20023;-87
2022/12/15 13:51:20;;;;;;;21.42;19.13;;;4.90;99.90;;;;;;5026929;28;20354;-87
2022/12/15 13:53:58;;;;;;;18.33;16.67;;;4.90;99.90;;;;;;5007668;28;20049;-87
2022/12/15 13:56:28;;;;;;;20.17;18.20;;;5.00;99.90;;;;;;5006337;28;20026;-87
2022/12/15 13:59:21;;;;;;;24.10;20.60;;;4.90;99.90;;;;;;5014055;28;20036;-86
2022/12/15 14:01:49;;;;;;;28.53;22.70;;;4.90;99.90;;;;;;5008868;28;20420;-86
2022/12/15 14:04:16;;;;;;;18.47;16.77;;;4.80;99.90;;;;;;4981149;28;20041;-87
2022/12/15 14:07:08;;;;;;;23.90;21.33;;;4.80;99.90;;;;;;4997004;28;20029;-87
2022/12/15 14:09:36;;;;;;;23.67;21.37;;;4.90;99.90;;;;;;4996371;28;20038;-87
2022/12/15 14:12:03;;;;;;;17.23;15.73;;;4.90;99.90;;;;;;4980835;28;20046;-87
2022/12/15 14:14:32;;;;;;;16.93;15.40;;;4.80;99.90;;;;;;4980849;28;20045;-87
2022/12/15 14:17:00;;;;;;;21.23;19.30;;;4.80;99.90;;;;;;4996376;28;20364;-86
2022/12/15 14:19:35;;;;;;;25.90;23.13;;;4.80;99.90;;;;;;4993132;28;20030;-87
2022/12/15 14:22:01;;;;;;;25.70;22.97;;;4.70;99.90;;;;;;4993548;28;20065;-87
2022/12/15 14:24:32;;;;;;;17.27;15.73;;;4.70;99.90;;;;;;5025843;28;20019;-86
2022/12/15 14:26:58;;;;;;;21.83;19.65;;;4.70;99.90;;;;;;5009511;28;20042;-86
2022/12/15 14:29:24;;;;;;;24.37;20.43;;;4.70;99.90;;;;;;5026044;28;20033;-86
2022/12/15 14:31:55;;;;;;;19.33;17.40;;;4.70;99.90;;;;;;5008790;28;20045;-87
2022/12/15 14:34:31;;;;;;;;;;;4.70;99.90;;;;;;5026254;28;20114;-87
2022/12/15 14:37:01;;;;;;;25.67;22.10;;;4.60;99.90;;;;;;5025950;28;20291;-87
2022/12/15 14:39:29;;;;;;;25.03;22.33;;;4.60;99.90;;;;;;4992767;28;20038;-86
2022/12/15 14:41:56;;;;;;;26.13;22.23;;;4.60;99.90;;;;;;5025724;28;20093;-87
2022/12/15 14:44:35;;;;;;;24.90;21.57;;;4.60;99.90;;;;;;5009089;28;20042;-86
2022/12/15 14:47:02;;;;;;;25.33;21.63;;;4.50;99.90;;;;;;5025168;28;20038;-87
2022/12/15 14:49:42;;;;;;;19.07;17.00;;;4.50;99.90;;;;;;5025747;28;20491;-86
2022/12/15 14:52:22;;;;;;;24.87;21.93;;;4.50;99.90;;;;;;5025610;28;20039;-86
2022/12/15 14:54:52;;;;;;;24.07;20.50;;;4.50;99.90;;;;;;5009417;28;20046;-86
2022/12/15 14:57:41;;;;;;;17.00;15.48;;;4.50;99.90;;;;;;5028017;28;20042;-86
2022/12/15 15:00:25;;;;;;;25.50;22.83;;;4.50;99.90;;;;;;5011475;28;20389;-85
2022/12/15 15:03:13;;;;;;;25.87;23.17;;;4.50;99.90;;;;;;5013463;28;20013;-86
2022/12/15 15:05:42;;;;;;;22.80;20.37;;;4.50;99.90;;;;;;5012245;28;20045;-86
2022/12/15 15:08:20;;;;;;;17.83;16.20;;;4.50;99.90;;;;;;4995793;28;20030;-86
2022/12/15 15:10:46;;;;;;;21.63;19.40;;;4.50;99.90;;;;;;4995401;28;20033;-87
2022/12/15 15:13:18;;;;;;;25.00;21.33;;;4.40;99.90;;;;;;5011737;28;20041;-83
2022/12/15 15:15:51;;;;;;;27.60;21.83;;;4.40;99.90;;;;;;4995653;28;20402;-86
2022/12/15 15:18:17;;;;;;;23.93;21.00;;;4.40;99.90;;;;;;4995932;28;20045;-86
2022/12/15 15:20:49;;;;;;;26.17;21.60;;;4.40;99.90;;;;;;4981918;28;20458;-86
2022/12/15 15:23:16;;;;;;;20.57;18.53;;;4.40;99.90;;;;;;5025161;28;20476;-87